createdAt,value
2023-01-30T00:02:08.971Z,-1.05
2023-01-30T00:05:14.627Z,-1.18
2023-01-30T00:08:17.268Z,-1.27
2023-01-30T00:11:22.132Z,-1.35
2023-01-30T00:14:24.723Z,-1.45
2023-01-30T00:17:27.649Z,-1.51
2023-01-30T00:20:30.643Z,-1.59
2023-01-30T00:23:34.566Z,-1.64
2023-01-30T00:26:38.941Z,-1.61
2023-01-30T00:29:42.334Z,-1.43
2023-01-30T00:32:45.879Z,-1.29
2023-01-30T00:35:49.349Z,-1.29
2023-01-30T00:38:52.097Z,-1.46
2023-01-30T00:42:13.740Z,-1.53
2023-01-30T00:45:33.981Z,-1.45
2023-01-30T00:48:36.622Z,-1.48
2023-01-30T00:51:39.225Z,-1.55
2023-01-30T00:54:41.936Z,-1.55
2023-01-30T00:57:47.049Z,-1.58
2023-01-30T01:00:50.345Z,-1.49
2023-01-30T01:03:52.989Z,-1.40
2023-01-30T01:06:55.586Z,-1.36
2023-01-30T01:09:59.284Z,-1.34
2023-01-30T01:13:03.454Z,-1.26
2023-01-30T01:16:07.074Z,-1.01
2023-01-30T01:19:09.722Z,-0.98
2023-01-30T01:22:12.464Z,-1.06
2023-01-30T01:25:15.264Z,-1.05
2023-01-30T01:28:22.265Z,-1.16
2023-01-30T01:31:25.665Z,-1.12
2023-01-30T01:34:28.506Z,-1.06
2023-01-30T01:37:31.540Z,-1.02
2023-01-30T01:40:51.655Z,-0.93
2023-01-30T01:44:04.454Z,-0.95
2023-01-30T01:47:09.767Z,-0.89
2023-01-30T01:50:15.180Z,-0.85
2023-01-30T01:53:20.247Z,-0.82
2023-01-30T01:56:23.845Z,-0.63
2023-01-30T01:59:31.057Z,-0.37
2023-01-30T02:02:35.210Z,-0.37
2023-01-30T02:05:40.287Z,-0.43
2023-01-30T02:08:45.925Z,-0.63
2023-01-30T02:11:50.904Z,-0.73
2023-01-30T02:14:56.260Z,-0.72
2023-01-30T02:17:59.049Z,-0.68
2023-01-30T02:21:25.313Z,-0.76
2023-01-30T02:24:37.122Z,-0.92
2023-01-30T02:27:55.190Z,-1.08
2023-01-30T02:31:11.791Z,-1.13
2023-01-30T02:34:27.642Z,-1.08
2023-01-30T02:37:36.588Z,-1.01
2023-01-30T02:40:43.613Z,-1.01
2023-01-30T02:43:52.823Z,-1.07
2023-01-30T02:46:58.840Z,-1.13
2023-01-30T02:50:05.562Z,-1.23
2023-01-30T02:53:08.856Z,-1.33
2023-01-30T02:56:11.510Z,-1.32
2023-01-30T02:59:15.819Z,-1.37
2023-01-30T03:02:36.452Z,-1.43
2023-01-30T03:05:46.745Z,-1.52
2023-01-30T03:08:56.670Z,-1.53
2023-01-30T03:12:04.122Z,-1.33
2023-01-30T03:15:11.672Z,-1.30
2023-01-30T03:18:16.139Z,-1.18
2023-01-30T03:21:19.182Z,-0.96
2023-01-30T03:24:22.033Z,-0.72
2023-01-30T03:27:25.138Z,-0.45
2023-01-30T03:30:28.462Z,-0.36
2023-01-30T03:33:32.709Z,-0.10
2023-01-30T03:36:35.774Z,0.16
2023-01-30T03:39:38.520Z,0.36
2023-01-30T03:42:42.042Z,0.34
2023-01-30T03:45:44.836Z,0.49
2023-01-30T03:48:48.742Z,0.51
2023-01-30T03:51:51.901Z,0.50
2023-01-30T03:54:54.548Z,0.58
2023-01-30T03:57:57.792Z,0.56
2023-01-30T04:01:00.500Z,0.83
2023-01-30T04:04:04.590Z,0.96
2023-01-30T04:07:07.276Z,0.92
2023-01-30T04:10:10.889Z,1.09
2023-01-30T04:13:13.737Z,1.10
2023-01-30T04:16:18.321Z,1.16
2023-01-30T04:19:22.363Z,1.16
2023-01-30T04:22:25.071Z,1.17
2023-01-30T04:25:27.772Z,1.19
2023-01-30T04:28:30.766Z,1.18
2023-01-30T04:31:33.872Z,1.10
2023-01-30T04:34:37.952Z,1.11
2023-01-30T04:37:40.778Z,1.13
2023-01-30T04:40:43.481Z,1.31
2023-01-30T04:43:46.273Z,1.56
2023-01-30T04:46:48.907Z,1.61
2023-01-30T04:49:53.693Z,1.66
2023-01-30T04:52:56.307Z,1.56
2023-01-30T04:55:59.010Z,1.74
2023-01-30T04:59:01.771Z,1.72
2023-01-30T05:02:06.941Z,1.68
2023-01-30T05:05:11.360Z,1.74
2023-01-30T05:08:14.018Z,1.73
2023-01-30T05:11:16.789Z,1.91
2023-01-30T05:14:19.383Z,1.85
2023-01-30T05:17:22.126Z,1.95
2023-01-30T05:20:26.326Z,1.91
2023-01-30T05:23:28.928Z,1.75
2023-01-30T05:26:32.295Z,1.71
2023-01-30T05:29:35.448Z,1.90
2023-01-30T05:32:38.284Z,2.01
2023-01-30T05:35:47.713Z,1.98
2023-01-30T05:38:50.652Z,2.12
2023-01-30T05:41:53.244Z,2.05
2023-01-30T05:44:55.953Z,2.12
2023-01-30T05:48:01.333Z,2.06
2023-01-30T05:51:06.003Z,1.98
2023-01-30T05:54:08.902Z,2.03
2023-01-30T05:57:11.579Z,1.83
2023-01-30T06:00:15.558Z,1.94
2023-01-30T06:03:18.068Z,1.90
2023-01-30T06:06:22.471Z,1.98
2023-01-30T06:09:25.339Z,1.86
2023-01-30T06:12:28.007Z,1.98
2023-01-30T06:15:30.954Z,2.06
2023-01-30T06:18:33.668Z,2.02
2023-01-30T06:21:37.807Z,2.10
2023-01-30T06:24:40.390Z,1.89
2023-01-30T06:27:43.911Z,1.73
2023-01-30T06:30:46.621Z,1.59
2023-01-30T06:33:50.160Z,1.66
2023-01-30T06:36:54.114Z,1.66
2023-01-30T06:39:57.000Z,1.57
2023-01-30T06:42:59.671Z,1.66
2023-01-30T06:46:02.424Z,1.72
2023-01-30T06:49:05.455Z,1.88
2023-01-30T06:52:09.465Z,1.89
2023-01-30T06:55:14.218Z,2.02
2023-01-30T06:58:16.921Z,2.07
2023-01-30T07:01:21.234Z,2.21
2023-01-30T07:04:33.146Z,2.13
2023-01-30T07:07:41.692Z,2.07
2023-01-30T07:10:47.429Z,2.23
2023-01-30T07:13:51.848Z,2.25
2023-01-30T07:16:58.746Z,2.35
2023-01-30T07:20:09.673Z,2.31
2023-01-30T07:26:48.228Z,2.33
2023-01-30T07:29:57.092Z,2.40
2023-01-30T07:33:05.708Z,2.40
2023-01-30T07:36:12.314Z,2.37
2023-01-30T07:39:31.776Z,2.63
2023-01-30T07:42:37.451Z,2.71
2023-01-30T07:45:57.085Z,2.73
2023-01-30T07:49:09.155Z,2.71
2023-01-30T07:52:12.554Z,2.85
2023-01-30T07:55:19.345Z,3.08
2023-01-30T07:58:24.166Z,2.98
2023-01-30T08:01:26.993Z,3.03
2023-01-30T08:04:32.030Z,3.12
2023-01-30T08:07:34.813Z,2.90
2023-01-30T08:10:42.549Z,2.88
2023-01-30T08:13:47.299Z,3.06
2023-01-30T08:16:52.706Z,3.35
2023-01-30T08:19:56.537Z,3.15
2023-01-30T08:23:10.426Z,3.35
2023-01-30T08:26:14.509Z,3.22
2023-01-30T08:29:18.610Z,3.04
2023-01-30T08:32:23.024Z,2.90
2023-01-30T08:35:31.754Z,2.78
2023-01-30T08:38:37.189Z,2.99
2023-01-30T08:41:46.469Z,3.46
2023-01-30T08:44:51.157Z,3.62
2023-01-30T08:47:54.008Z,3.56
2023-01-30T08:50:58.974Z,3.49
2023-01-30T08:54:21.710Z,3.69
2023-01-30T08:57:25.808Z,3.73
2023-01-30T09:00:37.834Z,4.04
2023-01-30T09:03:40.803Z,3.86
2023-01-30T09:06:44.597Z,4.01
2023-01-30T09:09:53.869Z,3.70
2023-01-30T09:13:02.175Z,4.14
2023-01-30T09:16:09.454Z,5.04
2023-01-30T09:19:17.868Z,5.58
2023-01-30T09:22:30.664Z,6.03
2023-01-30T09:25:35.101Z,5.96
2023-01-30T09:28:43.805Z,5.81
2023-01-30T09:31:47.432Z,4.93
2023-01-30T09:34:54.115Z,4.91
2023-01-30T09:41:55.973Z,4.85
2023-01-30T09:45:18.033Z,5.09
2023-01-30T09:48:25.758Z,4.94
2023-01-30T09:51:52.193Z,4.94
2023-01-30T09:55:16.020Z,5.58
2023-01-30T09:59:03.441Z,5.54
2023-01-30T10:02:39.777Z,5.64
2023-01-30T10:06:00.531Z,5.80
2023-01-30T10:13:07.249Z,6.10
2023-01-30T10:16:29.442Z,5.65
2023-01-30T10:20:00.157Z,5.96
2023-01-30T10:23:34.328Z,5.75
2023-01-30T10:26:38.933Z,6.00
2023-01-30T10:30:24.096Z,6.22
2023-01-30T10:33:39.071Z,6.00
2023-01-30T10:37:13.989Z,6.06
2023-01-30T10:40:24.826Z,5.92
2023-01-30T10:43:43.459Z,6.18
2023-01-30T10:47:41.754Z,5.86
2023-01-30T10:51:00.308Z,5.67
2023-01-30T10:54:26.375Z,5.79
2023-01-30T11:05:49.699Z,5.60
2023-01-30T11:09:02.798Z,5.67
2023-01-30T11:12:34.051Z,5.79
2023-01-30T11:16:16.531Z,5.71
2023-01-30T11:19:39.081Z,5.32
2023-01-30T11:23:10.168Z,5.41
2023-01-30T11:26:55.167Z,5.31
2023-01-30T11:30:15.255Z,5.59
2023-01-30T11:33:25.068Z,5.39
2023-01-30T11:36:31.251Z,5.51
2023-01-30T11:40:05.718Z,5.48
2023-01-30T11:43:14.834Z,4.94
2023-01-30T11:46:27.046Z,4.56
2023-01-30T11:49:48.123Z,4.39
2023-01-30T11:53:03.887Z,4.42
2023-01-30T11:56:15.419Z,4.40
2023-01-30T11:59:26.136Z,4.37
2023-01-30T12:02:33.970Z,4.71
2023-01-30T12:05:42.348Z,4.75
2023-01-30T12:08:45.354Z,4.62
2023-01-30T12:11:48.242Z,4.44
2023-01-30T12:14:57.418Z,4.51
2023-01-30T12:18:07.234Z,4.37
2023-01-30T12:21:15.136Z,4.12
2023-01-30T12:24:23.366Z,4.32
2023-01-30T12:27:33.139Z,4.19
2023-01-30T12:33:44.134Z,4.32
2023-01-30T12:36:51.694Z,4.32
2023-01-30T12:40:07.649Z,4.41
2023-01-30T12:43:35.309Z,4.34
2023-01-30T12:47:05.102Z,4.21
2023-01-30T12:50:58.766Z,4.25
2023-01-30T12:54:15.167Z,4.11
2023-01-30T12:57:31.430Z,4.13
2023-01-30T13:01:05.269Z,4.13
2023-01-30T13:04:15.288Z,4.16
2023-01-30T13:07:23.341Z,4.11
2023-01-30T13:10:32.428Z,3.87
2023-01-30T13:13:48.322Z,3.98
2023-01-30T13:17:01.600Z,4.27
2023-01-30T13:20:06.740Z,4.34
2023-01-30T13:23:18.852Z,4.46
2023-01-30T13:26:41.840Z,4.61
2023-01-30T13:29:45.794Z,4.75
2023-01-30T13:33:02.910Z,5.06
2023-01-30T13:36:12.810Z,4.78
2023-01-30T13:39:18.890Z,5.04
2023-01-30T13:42:32.904Z,5.07
2023-01-30T13:45:37.885Z,5.30
2023-01-30T13:48:52.698Z,5.47
2023-01-30T13:51:58.762Z,5.55
2023-01-30T13:55:12.507Z,5.29
2023-01-30T13:58:30.449Z,5.25
2023-01-30T14:02:14.257Z,5.23
2023-01-30T14:05:59.479Z,5.42
2023-01-30T14:09:06.082Z,5.54
2023-01-30T14:12:18.548Z,5.56
2023-01-30T14:15:28.950Z,5.88
2023-01-30T14:18:36.291Z,5.96
2023-01-30T14:21:49.293Z,6.24
2023-01-30T14:25:38.121Z,6.03
2023-01-30T14:28:48.531Z,6.21
2023-01-30T14:31:57.194Z,6.38
2023-01-30T14:35:21.570Z,5.91
2023-01-30T14:38:26.916Z,6.38
2023-01-30T14:41:43.238Z,6.10
2023-01-30T14:45:10.198Z,6.39
2023-01-30T14:48:54.970Z,6.45
2023-01-30T14:52:02.136Z,6.23
2023-01-30T14:55:05.845Z,5.75
2023-01-30T14:58:13.835Z,5.97
2023-01-30T15:01:18.539Z,5.74
2023-01-30T15:04:34.167Z,6.02
2023-01-30T15:08:00.861Z,7.37
2023-01-30T15:14:53.340Z,6.35
2023-01-30T15:18:13.950Z,6.00
2023-01-30T15:21:40.803Z,5.53
2023-01-30T15:25:13.587Z,5.68
2023-01-30T15:28:33.843Z,5.59
2023-01-30T15:31:36.652Z,5.73
2023-01-30T15:34:41.807Z,5.76
2023-01-30T15:37:50.978Z,5.68
2023-01-30T15:40:54.806Z,5.71
2023-01-30T15:44:06.224Z,5.58
2023-01-30T15:47:23.335Z,5.37
2023-01-30T15:50:26.204Z,5.25
2023-01-30T15:53:32.207Z,5.33
2023-01-30T15:56:35.018Z,5.10
2023-01-30T15:59:40.178Z,5.06
2023-01-30T16:02:44.198Z,5.00
2023-01-30T16:05:50.488Z,4.85
2023-01-30T16:09:00.355Z,4.79
2023-01-30T16:12:03.337Z,4.90
2023-01-30T16:15:18.832Z,4.79
2023-01-30T16:18:30.385Z,4.70
2023-01-30T16:21:34.447Z,4.75
2023-01-30T16:24:42.103Z,4.77
2023-01-30T16:28:16.095Z,4.70
2023-01-30T16:31:19.278Z,4.86
2023-01-30T16:34:28.773Z,4.61
2023-01-30T16:37:31.841Z,4.84
2023-01-30T16:40:46.341Z,4.81
2023-01-30T16:44:08.519Z,4.71
2023-01-30T16:47:24.013Z,4.74
2023-01-30T16:50:26.818Z,4.91
2023-01-30T16:53:32.130Z,4.80
2023-01-30T16:56:36.769Z,4.76
2023-01-30T16:59:40.279Z,4.87
2023-01-30T17:02:43.617Z,4.72
2023-01-30T17:05:48.751Z,4.81
2023-01-30T17:08:55.116Z,4.71
2023-01-30T17:12:01.369Z,4.57
2023-01-30T17:15:29.889Z,4.48
2023-01-30T17:18:32.504Z,4.33
2023-01-30T17:21:44.195Z,4.42
2023-01-30T17:24:46.994Z,4.39
2023-01-30T17:27:58.622Z,4.38
2023-01-30T17:31:03.732Z,4.38
2023-01-30T17:34:06.482Z,4.34
2023-01-30T17:37:11.772Z,4.30
2023-01-30T17:40:17.062Z,4.15
2023-01-30T17:43:21.341Z,4.12
2023-01-30T17:46:28.222Z,4.09
2023-01-30T17:49:32.910Z,4.04
2023-01-30T17:52:40.073Z,3.96
2023-01-30T17:55:44.886Z,3.98
2023-01-30T17:58:50.938Z,4.01
2023-01-30T18:01:54.610Z,3.98
2023-01-30T18:04:57.374Z,3.97
2023-01-30T18:08:14.408Z,3.94
2023-01-30T18:11:26.374Z,3.90
2023-01-30T18:14:32.984Z,3.96
2023-01-30T18:18:05.495Z,4.01
2023-01-30T18:21:08.519Z,4.07
2023-01-30T18:24:14.271Z,4.07
2023-01-30T18:27:22.451Z,4.13
2023-01-30T18:30:28.757Z,4.21
2023-01-30T18:33:34.396Z,4.30
2023-01-30T18:36:37.519Z,4.28
2023-01-30T18:39:40.392Z,4.42
2023-01-30T18:42:43.312Z,4.53
2023-01-30T18:45:51.267Z,4.67
2023-01-30T18:48:54.212Z,4.70
2023-01-30T18:51:57.085Z,4.74
2023-01-30T18:55:00.455Z,4.79
2023-01-30T18:58:03.141Z,4.67
2023-01-30T19:01:16.907Z,4.79
2023-01-30T19:04:19.628Z,4.79
2023-01-30T19:07:22.331Z,4.67
2023-01-30T19:10:30.194Z,4.43
2023-01-30T19:13:36.568Z,4.30
2023-01-30T19:16:41.067Z,4.25
2023-01-30T19:19:46.184Z,4.12
2023-01-30T19:22:49.772Z,4.06
2023-01-30T19:25:55.709Z,4.18
2023-01-30T19:28:59.707Z,4.28
2023-01-30T19:32:04.007Z,4.50
2023-01-30T19:35:07.854Z,4.56
2023-01-30T19:38:10.704Z,4.63
2023-01-30T19:41:14.352Z,4.56
2023-01-30T19:44:17.225Z,4.61
2023-01-30T19:47:23.283Z,4.69
2023-01-30T19:50:26.039Z,4.65
2023-01-30T19:53:28.842Z,4.72
2023-01-30T19:56:32.176Z,4.80
2023-01-30T19:59:39.469Z,4.82
2023-01-30T20:02:44.360Z,4.83
2023-01-30T20:05:47.027Z,4.97
2023-01-30T20:08:54.356Z,4.90
2023-01-30T20:11:57.070Z,4.81
2023-01-30T20:14:59.935Z,4.99
2023-01-30T20:18:03.922Z,5.01
2023-01-30T20:21:08.450Z,4.88
2023-01-30T20:24:12.872Z,5.05
2023-01-30T20:27:15.589Z,5.05
2023-01-30T20:30:19.826Z,4.88
2023-01-30T20:33:24.720Z,5.00
2023-01-30T20:36:28.014Z,5.04
2023-01-30T20:39:30.721Z,4.87
2023-01-30T20:42:35.736Z,4.99
2023-01-30T20:45:38.533Z,5.06
2023-01-30T20:48:43.261Z,5.17
2023-01-30T20:51:46.994Z,4.97
2023-01-30T20:54:50.027Z,5.07
2023-01-30T20:57:52.801Z,5.09
2023-01-30T21:00:55.716Z,5.21
2023-01-30T21:03:59.855Z,5.12
2023-01-30T21:07:02.440Z,5.13
2023-01-30T21:10:09.355Z,5.16
2023-01-30T21:13:15.775Z,5.21
2023-01-30T21:16:21.746Z,5.11
2023-01-30T21:19:25.813Z,5.14
2023-01-30T21:22:29.759Z,5.17
2023-01-30T21:25:37.168Z,5.06
2023-01-30T21:28:48.512Z,5.16
2023-01-30T21:31:51.586Z,5.21
2023-01-30T21:34:56.799Z,5.25
2023-01-30T21:38:16.987Z,5.29
2023-01-30T21:41:38.962Z,5.28
2023-01-30T21:44:41.818Z,5.16
2023-01-30T21:47:44.528Z,5.19
2023-01-30T21:50:50.961Z,5.25
2023-01-30T21:53:54.037Z,5.27
2023-01-30T21:56:56.999Z,5.12
2023-01-30T21:59:59.847Z,5.16
2023-01-30T22:03:02.485Z,5.07
2023-01-30T22:06:07.632Z,5.14
2023-01-30T22:09:13.798Z,5.08
2023-01-30T22:12:16.415Z,5.07
2023-01-30T22:15:20.797Z,5.06
2023-01-30T22:18:23.596Z,4.99
2023-01-30T22:21:28.960Z,5.09
2023-01-30T22:24:31.751Z,5.01
2023-01-30T22:27:34.588Z,4.97
2023-01-30T22:30:37.357Z,5.04
2023-01-30T22:33:40.607Z,4.98
2023-01-30T22:36:44.615Z,4.99
2023-01-30T22:39:47.394Z,5.05
2023-01-30T22:42:50.212Z,5.05
2023-01-30T22:45:52.765Z,5.01
2023-01-30T22:48:55.482Z,5.00
2023-01-30T22:52:01.590Z,5.07
2023-01-30T22:55:04.305Z,5.04
2023-01-30T22:58:07.147Z,4.96
2023-01-30T23:01:13.351Z,4.96
2023-01-30T23:04:18.790Z,4.99
2023-01-30T23:07:22.767Z,4.95
2023-01-30T23:10:25.582Z,5.06
2023-01-30T23:13:28.188Z,5.03
2023-01-30T23:16:33.503Z,5.06
2023-01-30T23:19:35.636Z,4.91
2023-01-30T23:22:40.167Z,5.08
2023-01-30T23:25:43.534Z,4.97
2023-01-30T23:28:46.305Z,4.99
2023-01-30T23:31:49.117Z,5.02
2023-01-30T23:34:51.681Z,4.94
2023-01-30T23:38:13.127Z,4.95
2023-01-30T23:41:17.111Z,4.97
2023-01-30T23:44:20.017Z,4.95
2023-01-30T23:47:22.578Z,4.93
2023-01-30T23:50:25.164Z,4.84
2023-01-30T23:53:29.313Z,4.90
2023-01-30T23:56:34.048Z,4.86
2023-01-30T23:59:37.389Z,4.87
